Terminal Aerodrome Forecast
Issued by NWS Grand Forks, ND

Home | Current Version | Previous Version | Graphics & Text | Print | Product List | Glossary On
Versions: 1 2 3 4 5 6 7 8 9 10 11 12 13 14 15 16 17 18 19 20
000
FTUS43 KFGF 230407 AAC
TAFFAR
TAF AMD
KFAR 230407Z 2304/2324 16020KT P6SM BKN060
      TEMPO 2304/2307 16020G30KT
     FM231700 17010KT P6SM BKN025
     FM231800 17009KT P6SM OVC015
     FM232300 14006KT P6SM OVC015=

USA.gov is the U.S. government's official web portal to all federal, state and local government web resources and services.